Terminal Aerodrome Forecast
Issued by NWS Topeka, KS

Home | Current Version | Previous Version | Text Only | Print | Product List | Glossary Off
Versions: 1 2 3 4 5 6 7 8 9 10 11 12 13 14 15 16 17 18 19 20 21 22 23 24 25 26

792
FTUS43 KTOP 251720
TAFTOP
TAF
KTOP 251720Z 2518/2618 35011KT P6SM VCSH OVC013
     FM260300 33006KT 5SM BR OVC008
     FM261000 31004KT 3SM BR OVC006=

USA.gov is the U.S. government's official web portal to all federal, state and local government web resources and services.